Durango, CO

7:21 PM MST on December 17, 2014 (GMT -0700)
Pagosa Springs | Change Station
CLOSE
Current Station
Airport
Location: Pagosa Springs,
Elevation: 7657 ft
Nearby Weather Stations

Elev 7657 ft 37.29 °N, 107.06 °W | Updated 6 minutes ago

Overcast
Overcast
32 °F
Feels Like 32 °F
N
0
Wind Variable Wind from North

Today
High -- | Low -- °F
--% Chance of Precip.
Yesterday
High -- | Low -- °F
Precip. -- in
7:19 AM 4:55 PM
Waning Crescent, 18% visible
Pressure 30.01 in
Visibility 1.5 miles
Clouds Mostly Cloudy 500 ft
Mostly Cloudy 1000 ft
Overcast 1900 ft
Dew Point 32 °F
Humidity 100%
Rainfall 0.00 in
Snow Depth Not available.
UV 0 out of 12
Pollen .40 out of 12
Air Quality Not available.
Flu Activity Not available.
METAR KPSO 180215Z AUTO 00000KT 1 1/2SM -SN BKN005 BKN010 OVC019 00/00 A3001 RMK AO2 T10021002

More Conditions Fewer Conditions

Pressure 30.01 in
Visibility 1.5 miles
Clouds Mostly Cloudy 500 ft
Mostly Cloudy 1000 ft
Overcast 1900 ft
Dew Point 32 °F
Humidity 100%
Rainfall 0.00 in
Snow Depth Not available.
UV 0 out of 12
Pollen .40 out of 12
Air Quality Not available.
Flu Activity Not available.
METAR KPSO 180215Z AUTO 00000KT 1 1/2SM -SN BKN005 BKN010 OVC019 00/00 A3001 RMK AO2 T10021002

More Conditions Fewer Conditions

10-Day Weather Forecast

Almanac

Astronomy

Dec. 17, 2014 Rise Set
Actual Time
Civil Twilight
Nautical Twilight
Astronomical Twilight
Moon
Length of Visible Light
Length of Day
Tomorrow will be .
, % of the Moon is Illuminated

Today's Extremes

State Highs State Lows

Community

WunderPhotos

Upload Photos

1,778,859 photos uploaded!

WunderBlogs® & News

Nearby

Air Quality

  Air Quality AQ Index Pollutant
Not available.

Snow Depth

Station Depth Elevation

Earthquake Activity

City Distance Mag. Time & Date
Minimum magnitude displayed is 2.5.

Coastal Water Temperatures

Place Temperature

Nearby Weather Stations